Time;durP1;ratioP1;P1;durP2;ratioP2;P2;SDS_P1;SDS_P2;PMS_P1;PMS_P2;Temp;Humidity;BMP_temperature;BMP_pressure;BME280_temperature;BME280_humidity;BME280_pressure;Samples;Min_cycle;Max_cycle;Signal;HPM_P1;HPM_P2
2023/07/13 00:02:15;;;;;;;9.60;2.42;;;16.80;99.30;;;;;;5074291;28;20036;-75
2023/07/13 00:04:41;;;;;;;15.27;3.15;;;16.70;99.60;;;;;;5074272;28;20037;-75
2023/07/13 00:07:08;;;;;;;12.65;2.30;;;16.70;99.90;;;;;;5057335;28;20052;-75
2023/07/13 00:09:34;;;;;;;13.35;2.75;;;16.70;99.90;;;;;;5074066;28;20041;-75
2023/07/13 00:12:00;;;;;;;14.65;2.97;;;16.70;99.90;;;;;;5074296;28;20036;-75
2023/07/13 00:14:28;;;;;;;14.50;2.65;;;16.70;99.90;;;;;;5073944;28;20044;-75
2023/07/13 00:16:54;;;;;;;12.32;2.90;;;16.70;99.90;;;;;;5073996;28;20387;-75
2023/07/13 00:19:19;;;;;;;10.20;3.00;;;16.70;99.90;;;;;;5057233;28;20039;-75
2023/07/13 00:21:46;;;;;;;10.73;2.53;;;16.80;99.90;;;;;;5074140;28;20048;-75
2023/07/13 00:24:14;;;;;;;12.75;2.83;;;16.80;99.90;;;;;;5074133;28;20045;-75
2023/07/13 00:26:40;;;;;;;13.75;3.25;;;16.80;99.90;;;;;;5073868;28;20075;-75
2023/07/13 00:29:08;;;;;;;13.10;2.63;;;16.80;99.90;;;;;;5073787;28;20127;-75
2023/07/13 00:31:34;;;;;;;16.73;3.05;;;16.80;99.90;;;;;;5057047;28;20040;-75
2023/07/13 00:34:00;;;;;;;14.70;3.10;;;16.90;99.90;;;;;;5073596;28;20123;-75
2023/07/13 00:36:26;;;;;;;12.55;2.35;;;16.90;99.90;;;;;;5057038;28;20119;-75
2023/07/13 00:38:52;;;;;;;12.18;2.70;;;16.90;99.90;;;;;;5057123;28;20507;-75
2023/07/13 00:41:18;;;;;;;16.95;3.22;;;16.90;99.90;;;;;;5073579;28;20143;-75
2023/07/13 00:43:44;;;;;;;12.13;2.88;;;16.90;99.90;;;;;;5073736;28;20051;-75
2023/07/13 00:46:21;;;;;;;11.07;2.58;;;16.90;99.90;;;;;;5073694;28;20401;-75
2023/07/13 00:48:48;;;;;;;14.13;2.88;;;16.90;99.90;;;;;;5073308;28;20044;-75
2023/07/13 00:51:18;;;;;;;12.68;2.28;;;16.90;99.90;;;;;;5073364;28;20143;-75
2023/07/13 00:53:44;;;;;;;16.45;2.75;;;16.90;99.90;;;;;;5056618;28;20033;-75
2023/07/13 00:56:11;;;;;;;15.48;3.53;;;16.90;99.90;;;;;;5056502;28;20110;-75
2023/07/13 00:58:37;;;;;;;15.07;3.40;;;16.90;99.90;;;;;;5073386;28;20044;-75
2023/07/13 01:01:03;;;;;;;13.65;2.80;;;16.90;99.90;;;;;;5073108;28;20082;-75
2023/07/13 01:03:29;;;;;;;14.25;2.70;;;16.90;99.90;;;;;;5073362;28;20040;-75
2023/07/13 01:05:55;;;;;;;15.32;2.97;;;16.90;99.90;;;;;;5072927;28;20090;-75
2023/07/13 01:08:21;;;;;;;14.77;2.88;;;16.90;99.90;;;;;;5073126;28;20044;-75
2023/07/13 01:10:58;;;;;;;17.67;3.35;;;16.80;99.90;;;;;;5072965;28;20037;-74
2023/07/13 01:13:24;;;;;;;10.90;3.17;;;16.90;99.90;;;;;;5072831;28;20044;-75
2023/07/13 01:15:52;;;;;;;14.07;2.75;;;16.90;99.90;;;;;;5056254;28;20029;-75
2023/07/13 01:18:28;;;;;;;11.00;2.30;;;16.90;99.90;;;;;;5072705;28;20119;-75
2023/07/13 01:20:59;;;;;;;12.35;2.63;;;16.90;99.90;;;;;;5072744;28;20036;-75
2023/07/13 01:23:27;;;;;;;12.70;3.20;;;16.90;99.90;;;;;;5072998;28;20048;-75
2023/07/13 01:25:54;;;;;;;13.38;2.72;;;16.80;99.90;;;;;;5072632;28;20036;-75
2023/07/13 01:28:21;;;;;;;10.77;2.60;;;16.80;99.90;;;;;;5072545;28;20497;-75
2023/07/13 01:30:47;;;;;;;11.63;2.97;;;16.80;99.90;;;;;;5072500;28;20044;-75
2023/07/13 01:33:16;;;;;;;12.70;3.10;;;16.80;99.90;;;;;;5072469;28;20070;-75
2023/07/13 01:35:43;;;;;;;14.32;3.08;;;16.70;99.90;;;;;;5072494;28;20033;-75
2023/07/13 01:38:09;;;;;;;15.35;3.00;;;16.70;99.90;;;;;;5072598;28;20036;-75
2023/07/13 01:40:36;;;;;;;13.18;2.83;;;16.70;99.90;;;;;;5072503;28;20032;-75
2023/07/13 01:43:02;;;;;;;10.05;2.45;;;16.70;99.90;;;;;;5072342;28;20128;-76
2023/07/13 01:45:27;;;;;;;13.70;2.50;;;16.70;99.90;;;;;;5055819;28;20076;-76
2023/07/13 01:47:53;;;;;;;12.45;2.53;;;16.60;99.90;;;;;;5072215;28;20409;-75
2023/07/13 01:50:18;;;;;;;12.95;2.92;;;16.70;99.90;;;;;;5072488;28;20036;-75
2023/07/13 01:52:44;;;;;;;11.38;2.33;;;16.60;99.90;;;;;;5072108;28;20493;-75
2023/07/13 01:55:10;;;;;;;15.07;2.85;;;16.60;99.90;;;;;;5072151;28;20032;-75
2023/07/13 01:57:35;;;;;;;11.98;2.95;;;16.60;99.90;;;;;;5072114;28;20413;-75
2023/07/13 02:00:05;;;;;;;9.23;2.33;;;16.60;99.90;;;;;;5072137;28;20123;-75
2023/07/13 02:02:31;;;;;;;11.77;2.60;;;16.60;99.90;;;;;;5071665;28;20033;-75
2023/07/13 02:04:57;;;;;;;10.52;2.75;;;16.60;99.90;;;;;;5072422;28;20036;-75
2023/07/13 02:07:23;;;;;;;13.48;3.15;;;16.50;99.90;;;;;;5071897;28;20482;-75
2023/07/13 02:09:48;;;;;;;11.93;2.80;;;16.50;99.90;;;;;;5055263;28;20040;-75
2023/07/13 02:12:14;;;;;;;16.48;2.72;;;16.40;99.90;;;;;;5072232;28;20127;-75
2023/07/13 02:14:39;;;;;;;12.40;3.05;;;16.40;99.90;;;;;;5071903;28;20192;-75
2023/07/13 02:17:06;;;;;;;14.00;2.60;;;16.40;99.90;;;;;;5055496;28;20067;-74
2023/07/13 02:19:32;;;;;;;10.65;2.60;;;16.40;99.90;;;;;;5071873;28;20093;-75
2023/07/13 02:21:57;;;;;;;10.98;2.53;;;16.30;99.90;;;;;;5071826;28;20037;-75
2023/07/13 02:24:23;;;;;;;11.63;3.20;;;16.40;99.90;;;;;;5071818;28;20040;-75
2023/07/13 02:26:48;;;;;;;11.23;2.83;;;16.30;99.90;;;;;;5072117;28;20037;-75
2023/07/13 02:29:14;;;;;;;14.07;3.25;;;16.30;99.90;;;;;;5071729;28;20485;-75
2023/07/13 02:31:40;;;;;;;12.43;2.85;;;16.30;99.90;;;;;;5072101;28;20124;-75
2023/07/13 02:34:05;;;;;;;12.82;3.00;;;16.30;99.90;;;;;;5071731;28;20062;-75
2023/07/13 02:36:32;;;;;;;11.25;2.90;;;16.30;99.90;;;;;;5071704;28;20036;-75
2023/07/13 02:39:03;;;;;;;11.98;2.65;;;16.20;99.90;;;;;;5071843;28;20513;-75
2023/07/13 02:41:28;;;;;;;15.73;2.90;;;16.20;99.90;;;;;;5071889;28;20040;-75
2023/07/13 02:44:02;;;;;;;15.63;2.85;;;16.20;99.90;;;;;;5071871;28;20394;-75
2023/07/13 02:46:28;;;;;;;12.30;3.20;;;16.10;99.90;;;;;;5054975;28;20037;-75
2023/07/13 02:48:54;;;;;;;12.05;3.20;;;16.20;99.90;;;;;;5071563;28;20040;-75
2023/07/13 02:51:19;;;;;;;10.85;3.00;;;16.10;99.90;;;;;;5071626;28;20036;-75
2023/07/13 02:53:45;;;;;;;14.18;3.75;;;16.10;99.90;;;;;;5071690;28;20064;-75
2023/07/13 02:56:11;;;;;;;12.60;2.92;;;16.00;99.90;;;;;;5055201;28;20036;-75
2023/07/13 02:58:38;;;;;;;13.10;2.95;;;16.10;99.90;;;;;;5071699;28;20543;-75
2023/07/13 03:01:09;;;;;;;11.45;3.33;;;16.00;99.90;;;;;;5071516;28;20048;-75
2023/07/13 03:03:34;;;;;;;12.35;3.10;;;16.00;99.90;;;;;;5071478;28;20076;-75
2023/07/13 03:06:03;;;;;;;14.40;3.05;;;16.00;99.90;;;;;;5071244;28;20075;-75
2023/07/13 03:08:28;;;;;;;12.50;3.00;;;16.00;99.90;;;;;;5071632;28;20477;-75
2023/07/13 03:11:02;;;;;;;15.85;3.22;;;16.00;99.90;;;;;;5071648;28;20504;-75
2023/07/13 03:13:28;;;;;;;16.73;3.38;;;16.10;99.90;;;;;;5073544;28;20607;-75
2023/07/13 03:15:54;;;;;;;13.48;3.15;;;16.10;99.90;;;;;;5075505;28;20048;-75
2023/07/13 03:18:19;;;;;;;12.90;2.75;;;16.00;99.90;;;;;;5075052;28;20036;-75
2023/07/13 03:20:45;;;;;;;11.82;3.03;;;16.10;99.90;;;;;;5058435;28;20044;-75
2023/07/13 03:23:11;;;;;;;11.27;3.15;;;16.00;99.90;;;;;;5075258;28;20036;-75
2023/07/13 03:25:36;;;;;;;16.00;2.78;;;16.00;99.90;;;;;;5075226;28;20044;-75
2023/07/13 03:28:02;;;;;;;9.23;3.10;;;16.00;99.90;;;;;;5058163;28;20061;-75
2023/07/13 03:30:28;;;;;;;14.48;2.83;;;16.00;99.90;;;;;;5074916;28;20059;-75
2023/07/13 03:32:53;;;;;;;12.13;3.00;;;16.10;99.90;;;;;;5074988;28;20039;-75
2023/07/13 03:35:19;;;;;;;12.18;2.92;;;16.10;99.90;;;;;;5074796;28;20531;-75
2023/07/13 03:37:44;;;;;;;15.07;3.45;;;16.10;99.90;;;;;;5074992;28;20033;-75
2023/07/13 03:40:12;;;;;;;17.40;3.22;;;16.10;99.90;;;;;;5074702;28;20505;-75
2023/07/13 03:42:38;;;;;;;12.88;2.75;;;16.10;99.90;;;;;;5057987;28;20040;-75
2023/07/13 03:45:04;;;;;;;15.18;3.53;;;16.20;99.90;;;;;;5074615;28;20040;-74
2023/07/13 03:47:30;;;;;;;15.38;3.05;;;16.20;99.90;;;;;;5074762;28;20045;-75
2023/07/13 03:49:55;;;;;;;15.18;3.33;;;16.20;99.90;;;;;;5074540;28;20036;-75
2023/07/13 03:52:21;;;;;;;16.50;3.05;;;16.20;99.90;;;;;;5074440;28;20037;-75
2023/07/13 03:54:46;;;;;;;20.50;3.85;;;16.10;99.90;;;;;;5057660;28;20036;-75
2023/07/13 03:57:12;;;;;;;19.02;3.30;;;16.10;99.90;;;;;;5057719;28;20172;-75
2023/07/13 03:59:38;;;;;;;14.65;2.85;;;16.10;99.90;;;;;;5074287;28;20035;-75
2023/07/13 04:02:04;;;;;;;11.07;2.90;;;16.10;99.90;;;;;;5074297;28;20037;-75
2023/07/13 04:04:30;;;;;;;11.75;3.28;;;16.10;99.90;;;;;;5074243;28;20386;-75
2023/07/13 04:06:58;;;;;;;14.68;3.17;;;16.10;99.90;;;;;;5074320;28;20078;-75
2023/07/13 04:09:24;;;;;;;7.88;2.80;;;16.00;99.90;;;;;;5074102;28;20424;-75
2023/07/13 04:11:50;;;;;;;18.10;3.72;;;16.00;99.90;;;;;;5057475;28;20051;-75
2023/07/13 04:14:15;;;;;;;17.50;3.38;;;16.10;99.90;;;;;;5074133;28;20036;-75
2023/07/13 04:16:41;;;;;;;17.23;3.40;;;16.00;99.90;;;;;;5073985;28;20054;-75
2023/07/13 04:19:09;;;;;;;14.90;3.42;;;16.00;99.90;;;;;;5073940;28;20040;-75
2023/07/13 04:21:36;;;;;;;15.10;3.97;;;16.00;99.90;;;;;;5074258;28;20400;-75
2023/07/13 04:24:02;;;;;;;11.55;3.25;;;16.00;99.90;;;;;;5073301;28;20048;-75
2023/07/13 04:26:29;;;;;;;16.20;3.92;;;16.00;99.90;;;;;;5057172;28;20497;-75
2023/07/13 04:28:55;;;;;;;11.13;3.10;;;16.00;99.90;;;;;;5074042;28;20036;-75
2023/07/13 04:31:21;;;;;;;13.43;3.60;;;16.00;99.90;;;;;;5057058;28;20051;-75
2023/07/13 04:33:48;;;;;;;14.75;3.25;;;16.00;99.90;;;;;;5073787;28;20048;-75
2023/07/13 04:36:15;;;;;;;13.35;3.20;;;16.00;99.90;;;;;;5056949;28;20051;-75
2023/07/13 04:38:41;;;;;;;13.13;4.00;;;16.00;99.90;;;;;;5056825;28;20071;-75
2023/07/13 04:41:08;;;;;;;9.70;3.13;;;16.10;99.90;;;;;;5056891;28;20072;-75
2023/07/13 04:43:34;;;;;;;15.65;3.50;;;16.10;99.90;;;;;;5073737;28;20056;-75
2023/07/13 04:46:10;;;;;;;10.50;3.65;;;16.10;99.90;;;;;;5073468;28;20044;-75
2023/07/13 04:48:36;;;;;;;10.20;3.10;;;16.10;99.90;;;;;;5073371;28;20040;-75
2023/07/13 04:51:02;;;;;;;17.00;3.95;;;16.10;99.90;;;;;;5056694;28;20097;-75
2023/07/13 04:53:29;;;;;;;16.45;3.90;;;16.20;99.90;;;;;;5073183;28;20043;-75
2023/07/13 04:55:55;;;;;;;11.65;2.97;;;16.20;99.90;;;;;;5073286;28;20074;-75
2023/07/13 04:58:22;;;;;;;13.63;3.45;;;16.30;99.90;;;;;;5073343;28;20126;-75
2023/07/13 05:00:48;;;;;;;16.33;3.58;;;16.30;99.90;;;;;;5073103;28;20044;-75
2023/07/13 05:03:13;;;;;;;15.85;3.40;;;16.30;99.90;;;;;;5073717;28;20041;-75
2023/07/13 05:05:39;;;;;;;13.85;3.92;;;16.30;99.90;;;;;;5056354;28;20501;-75
2023/07/13 05:08:05;;;;;;;12.98;3.13;;;16.30;99.90;;;;;;5073263;28;20037;-75
2023/07/13 05:10:30;;;;;;;12.95;3.63;;;16.30;99.90;;;;;;5073188;28;20033;-75
2023/07/13 05:12:56;;;;;;;13.52;3.30;;;16.30;99.90;;;;;;5072831;28;20048;-75
2023/07/13 05:15:22;;;;;;;11.27;3.40;;;16.30;99.90;;;;;;5072900;28;20091;-75
2023/07/13 05:17:49;;;;;;;11.18;3.20;;;16.30;99.90;;;;;;5073043;28;20060;-75
2023/07/13 05:20:15;;;;;;;16.08;3.80;;;16.40;99.90;;;;;;5072731;28;20074;-75
2023/07/13 05:22:41;;;;;;;17.67;4.32;;;16.40;99.90;;;;;;5072916;28;20182;-75
2023/07/13 05:25:08;;;;;;;16.33;3.40;;;16.40;99.90;;;;;;5072697;28;20071;-75
2023/07/13 05:27:35;;;;;;;12.60;4.00;;;16.50;99.90;;;;;;5072804;28;20515;-75
2023/07/13 05:30:01;;;;;;;11.20;3.63;;;16.60;99.90;;;;;;5072555;28;20113;-75
2023/07/13 05:32:27;;;;;;;14.18;3.83;;;16.60;99.90;;;;;;5072868;28;20042;-75
2023/07/13 05:34:52;;;;;;;16.95;3.47;;;16.60;99.90;;;;;;5072375;28;20120;-74
2023/07/13 05:37:18;;;;;;;13.40;3.35;;;16.60;99.90;;;;;;5071595;28;20505;-73
2023/07/13 05:39:44;;;;;;;11.75;3.47;;;16.70;99.90;;;;;;5055719;28;20037;-72
2023/07/13 05:42:09;;;;;;;12.13;3.22;;;16.70;99.90;;;;;;5072382;28;20044;-73
2023/07/13 05:44:35;;;;;;;10.52;3.03;;;16.80;99.90;;;;;;5072321;28;20041;-73
2023/07/13 05:47:01;;;;;;;13.07;3.60;;;16.90;99.90;;;;;;5072566;28;20131;-73
2023/07/13 05:49:26;;;;;;;12.82;3.22;;;16.90;99.90;;;;;;5072136;28;20489;-73
2023/07/13 05:51:52;;;;;;;14.18;3.42;;;17.00;99.90;;;;;;5072649;28;20044;-73
2023/07/13 05:54:18;;;;;;;14.05;3.53;;;17.00;99.90;;;;;;5072255;28;20040;-73
2023/07/13 05:56:44;;;;;;;19.15;3.97;;;17.10;99.90;;;;;;5055487;28;20409;-73
2023/07/13 05:59:09;;;;;;;15.77;3.88;;;17.10;99.90;;;;;;5072104;28;20033;-73
2023/07/13 06:01:35;;;;;;;15.65;4.30;;;17.20;99.90;;;;;;5072155;28;20044;-74
2023/07/13 06:04:01;;;;;;;13.05;3.63;;;17.20;99.90;;;;;;5072550;28;20098;-74
2023/07/13 06:06:26;;;;;;;12.57;4.32;;;17.30;99.90;;;;;;5071815;28;20049;-74
2023/07/13 06:08:52;;;;;;;15.50;3.75;;;17.40;99.90;;;;;;5072296;28;20051;-74
2023/07/13 06:11:20;;;;;;;12.27;3.63;;;17.40;99.90;;;;;;5072211;28;20409;-75
2023/07/13 06:13:46;;;;;;;12.80;3.22;;;17.50;99.90;;;;;;5055534;28;20068;-75
2023/07/13 06:16:13;;;;;;;12.75;4.13;;;17.60;99.90;;;;;;5071930;28;20492;-75
2023/07/13 06:18:39;;;;;;;10.25;3.13;;;17.70;99.90;;;;;;5071792;28;20040;-74
2023/07/13 06:21:07;;;;;;;12.27;3.50;;;17.80;99.90;;;;;;5072130;28;20063;-73
2023/07/13 06:23:33;;;;;;;14.43;3.70;;;17.90;99.90;;;;;;5072572;28;20405;-74
2023/07/13 06:25:59;;;;;;;18.65;4.30;;;17.90;99.90;;;;;;5072236;28;20493;-74
2023/07/13 06:28:24;;;;;;;12.48;3.10;;;18.00;99.90;;;;;;5071757;28;20493;-74
2023/07/13 06:30:50;;;;;;;15.10;3.22;;;18.10;99.90;;;;;;5072020;28;20067;-74
2023/07/13 06:33:16;;;;;;;12.25;3.10;;;18.20;99.90;;;;;;5071972;28;20508;-75
2023/07/13 06:35:42;;;;;;;16.15;3.83;;;18.20;99.90;;;;;;5071743;28;20087;-75
2023/07/13 06:38:07;;;;;;;14.73;3.42;;;18.30;99.90;;;;;;5071935;28;20044;-75
2023/07/13 06:40:33;;;;;;;12.70;3.22;;;18.30;99.90;;;;;;5071752;28;20043;-75
2023/07/13 06:42:59;;;;;;;11.45;3.03;;;18.50;99.90;;;;;;5071795;28;20048;-75
2023/07/13 06:45:24;;;;;;;12.23;3.25;;;18.50;99.90;;;;;;5072034;28;20044;-75
2023/07/13 06:47:50;;;;;;;10.35;3.35;;;18.60;99.90;;;;;;5072952;28;20044;-75
2023/07/13 06:50:16;;;;;;;9.48;2.95;;;18.70;99.90;;;;;;5075839;28;20063;-75
2023/07/13 06:52:41;;;;;;;7.47;2.75;;;18.70;99.90;;;;;;5058925;28;20036;-75
2023/07/13 06:55:07;;;;;;;12.77;3.00;;;18.80;99.90;;;;;;5075625;28;20044;-75
2023/07/13 06:57:33;;;;;;;11.65;3.35;;;19.00;99.90;;;;;;5059028;28;20036;-76
2023/07/13 06:59:59;;;;;;;13.18;3.55;;;19.30;99.90;;;;;;5059108;28;20090;-75
2023/07/13 07:02:25;;;;;;;14.23;3.10;;;19.40;99.90;;;;;;5075498;28;20497;-76
2023/07/13 07:04:51;;;;;;;10.25;3.33;;;19.50;99.90;;;;;;5058720;28;20059;-76
2023/07/13 07:07:16;;;;;;;12.43;3.28;;;19.50;99.90;;;;;;5075716;28;20131;-76
2023/07/13 07:09:42;;;;;;;12.02;3.38;;;19.50;99.90;;;;;;5075576;28;20045;-76
2023/07/13 07:12:08;;;;;;;9.32;2.90;;;19.50;99.90;;;;;;5075621;28;20409;-76
2023/07/13 07:14:34;;;;;;;10.77;3.13;;;19.50;99.90;;;;;;5075021;28;20049;-76
2023/07/13 07:17:00;;;;;;;13.30;2.92;;;19.50;99.90;;;;;;5075143;28;20037;-76
2023/07/13 07:19:27;;;;;;;9.90;3.13;;;19.50;99.90;;;;;;5075520;28;20044;-75
2023/07/13 07:21:52;;;;;;;9.95;2.63;;;19.50;99.90;;;;;;5075220;28;20412;-75
2023/07/13 07:24:18;;;;;;;13.27;2.72;;;19.40;99.90;;;;;;5074929;28;20044;-74
2023/07/13 07:26:43;;;;;;;10.70;2.45;;;19.40;99.90;;;;;;5074848;28;20059;-74
2023/07/13 07:29:09;;;;;;;16.48;3.03;;;19.60;99.90;;;;;;5074771;28;20032;-76
2023/07/13 07:31:37;;;;;;;10.93;3.05;;;19.90;99.90;;;;;;5058528;28;20072;-76
2023/07/13 07:34:02;;;;;;;11.95;2.92;;;20.00;99.90;;;;;;5074726;28;20068;-76
2023/07/13 07:36:28;;;;;;;10.32;3.17;;;20.00;99.90;;;;;;5075219;28;20105;-76
2023/07/13 07:38:54;;;;;;;12.05;3.33;;;19.90;99.90;;;;;;5074670;28;20493;-76
2023/07/13 07:41:20;;;;;;;13.73;3.88;;;19.70;99.90;;;;;;5058197;28;20037;-76
2023/07/13 07:43:45;;;;;;;13.45;3.67;;;19.60;99.90;;;;;;5058007;28;20045;-76
2023/07/13 07:46:11;;;;;;;12.32;3.78;;;19.40;99.90;;;;;;5074563;28;20043;-76
2023/07/13 07:48:36;;;;;;;10.20;3.20;;;19.20;99.90;;;;;;5074727;28;20036;-76
2023/07/13 07:51:02;;;;;;;14.85;4.07;;;19.20;99.90;;;;;;5074542;28;20078;-76
2023/07/13 07:53:28;;;;;;;12.32;3.90;;;19.10;99.90;;;;;;5057684;28;20052;-76
2023/07/13 07:55:53;;;;;;;11.07;3.88;;;19.20;99.90;;;;;;5074695;28;20047;-76
2023/07/13 07:58:19;;;;;;;9.43;3.25;;;19.30;99.90;;;;;;5074337;28;20037;-73
2023/07/13 08:00:44;;;;;;;10.13;3.58;;;19.50;99.90;;;;;;5073256;28;20028;-72
2023/07/13 08:03:10;;;;;;;11.32;4.22;;;19.50;99.90;;;;;;5074321;28;20094;-73
2023/07/13 08:05:36;;;;;;;11.93;3.63;;;19.60;99.90;;;;;;5074780;28;20131;-73
2023/07/13 08:08:03;;;;;;;15.02;4.05;;;19.80;99.90;;;;;;5074691;28;20036;-72
2023/07/13 08:10:28;;;;;;;12.30;3.80;;;20.00;99.90;;;;;;5057640;28;20036;-72
2023/07/13 08:12:54;;;;;;;14.18;3.53;;;20.10;99.90;;;;;;5057695;28;20055;-73
2023/07/13 08:15:20;;;;;;;12.32;4.47;;;20.10;99.90;;;;;;5074417;28;20036;-72
2023/07/13 08:17:47;;;;;;;11.93;3.88;;;20.00;99.90;;;;;;5073948;28;20489;-72
2023/07/13 08:20:13;;;;;;;14.15;4.05;;;19.80;99.90;;;;;;5074303;28;20086;-72
2023/07/13 08:22:39;;;;;;;12.00;3.88;;;19.70;99.90;;;;;;5073937;28;20044;-72
2023/07/13 08:25:05;;;;;;;12.80;3.88;;;19.60;99.90;;;;;;5073930;28;20040;-72
2023/07/13 08:27:31;;;;;;;12.40;4.55;;;19.40;99.90;;;;;;5073810;28;20028;-71
2023/07/13 08:29:56;;;;;;;11.88;3.95;;;19.20;99.90;;;;;;5074050;28;20045;-71
2023/07/13 08:32:23;;;;;;;19.65;5.68;;;19.10;99.90;;;;;;5074058;28;20037;-72
2023/07/13 08:34:49;;;;;;;13.77;4.50;;;18.90;99.90;;;;;;5073673;28;20044;-72
2023/07/13 08:37:15;;;;;;;12.88;3.42;;;18.70;99.90;;;;;;5073640;28;20113;-72
2023/07/13 08:39:40;;;;;;;8.55;2.35;;;18.50;99.90;;;;;;5073798;28;20049;-72
2023/07/13 08:42:24;;;;;;;9.60;2.70;;;18.30;99.90;;;;;;5073839;28;20037;-72
2023/07/13 08:45:21;;;;;;;8.23;2.35;;;18.20;99.90;;;;;;5073498;28;20048;-72
2023/07/13 08:48:18;;;;;;;6.93;2.58;;;18.10;99.90;;;;;;5073415;28;20047;-71
2023/07/13 08:50:55;;;;;;;12.35;3.33;;;17.90;99.90;;;;;;5072679;28;20082;-71
2023/07/13 08:53:23;;;;;;;7.22;2.33;;;17.80;99.90;;;;;;5056867;28;20094;-72
2023/07/13 08:55:53;;;;;;;8.93;2.25;;;17.80;99.90;;;;;;5056600;28;20041;-72
2023/07/13 08:58:19;;;;;;;7.43;2.22;;;17.90;99.90;;;;;;5073293;28;20051;-71
2023/07/13 09:00:55;;;;;;;11.43;2.70;;;17.90;99.90;;;;;;5073190;28;20033;-72
2023/07/13 09:03:25;;;;;;;12.50;3.78;;;18.00;99.90;;;;;;5073461;28;20118;-72
2023/07/13 09:05:57;;;;;;;10.38;3.33;;;18.00;99.90;;;;;;5073237;28;20053;-72
2023/07/13 09:08:31;;;;;;;15.00;4.30;;;18.00;99.90;;;;;;5073018;28;20040;-71
2023/07/13 09:11:25;;;;;;;10.30;3.97;;;18.00;99.90;;;;;;5056145;28;20131;-72
2023/07/13 09:14:00;;;;;;;10.98;4.25;;;18.00;99.90;;;;;;5057147;28;20046;-72
2023/07/13 09:16:26;;;;;;;11.77;4.55;;;17.90;99.90;;;;;;5072905;28;20093;-72
2023/07/13 09:18:58;;;;;;;11.70;4.63;;;18.00;99.90;;;;;;5056565;28;20123;-71
2023/07/13 09:21:33;;;;;;;15.40;4.35;;;17.90;99.90;;;;;;5072807;28;20128;-71
2023/07/13 09:24:04;;;;;;;12.75;4.43;;;17.90;99.90;;;;;;5072744;28;20042;-72
2023/07/13 09:26:32;;;;;;;11.43;4.10;;;17.90;99.90;;;;;;5072991;28;20119;-72
2023/07/13 09:29:04;;;;;;;12.38;4.15;;;17.90;99.90;;;;;;5072775;28;20413;-71
2023/07/13 09:31:44;;;;;;;7.07;2.55;;;17.80;99.90;;;;;;5072639;28;20041;-72
2023/07/13 09:34:11;;;;;;;6.57;2.25;;;17.80;99.90;;;;;;5072411;28;20419;-72
2023/07/13 09:36:37;;;;;;;5.30;2.28;;;17.60;99.90;;;;;;5072442;28;20035;-72
2023/07/13 09:39:13;;;;;;;6.28;1.92;;;17.40;99.90;;;;;;5072973;28;20041;-72
2023/07/13 09:41:59;;;;;;;3.95;1.80;;;17.50;99.90;;;;;;5072431;28;20044;-72
2023/07/13 09:44:33;;;;;;;4.78;1.98;;;17.60;99.90;;;;;;5071865;28;20080;-72
2023/07/13 09:46:59;;;;;;;3.20;1.60;;;17.90;99.90;;;;;;5072623;28;20037;-72
2023/07/13 09:49:36;;;;;;;3.50;1.77;;;18.10;99.90;;;;;;5072457;28;20036;-71
2023/07/13 09:52:04;;;;;;;5.10;2.00;;;18.60;99.90;;;;;;5072510;28;20052;-72
2023/07/13 09:54:34;;;;;;;3.25;1.73;;;18.90;99.90;;;;;;5055368;28;20493;-72
2023/07/13 09:57:01;;;;;;;3.33;1.88;;;19.20;99.90;;;;;;5072196;28;20032;-72
2023/07/13 09:59:31;;;;;;;4.45;1.70;;;19.40;99.90;;;;;;5072746;28;20162;-72
2023/07/13 10:01:56;;;;;;;4.53;2.00;;;19.70;99.90;;;;;;5072441;28;20040;-72
2023/07/13 10:04:33;;;;;;;2.20;1.80;;;19.90;99.90;;;;;;5072078;28;20040;-72
2023/07/13 10:07:12;;;;;;;3.28;1.52;;;20.20;99.90;;;;;;5072006;28;20049;-72
2023/07/13 10:09:38;;;;;;;3.78;1.60;;;20.50;99.90;;;;;;5071971;28;20536;-72
2023/07/13 10:12:13;;;;;;;2.65;1.10;;;20.70;99.90;;;;;;5072049;28;20084;-72
2023/07/13 10:14:41;;;;;;;4.60;1.20;;;20.90;99.90;;;;;;5071890;28;20119;-72
2023/07/13 10:17:12;;;;;;;3.92;1.27;;;21.10;99.90;;;;;;5071906;28;20497;-71
2023/07/13 10:19:39;;;;;;;2.67;1.70;;;21.30;99.90;;;;;;5071873;28;20435;-72
2023/07/13 10:22:32;;;;;;;4.93;1.77;;;21.50;99.90;;;;;;5054656;28;20044;-72
2023/07/13 10:24:58;;;;;;;3.58;1.80;;;21.80;99.90;;;;;;5055438;28;20044;-72
2023/07/13 10:27:34;;;;;;;6.03;2.10;;;22.10;99.90;;;;;;5071758;28;20501;-71
2023/07/13 10:30:20;;;;;;;5.82;2.30;;;22.30;99.90;;;;;;5072102;28;20127;-71
2023/07/13 10:32:47;;;;;;;5.15;2.20;;;22.60;99.90;;;;;;5071742;28;20048;-72
2023/07/13 10:35:15;;;;;;;5.75;2.20;;;22.70;99.90;;;;;;5071798;28;20072;-72
2023/07/13 10:37:55;;;;;;;4.85;2.20;;;22.90;99.90;;;;;;5071662;28;20048;-72
2023/07/13 10:40:38;;;;;;;5.63;2.30;;;23.10;99.70;;;;;;5071747;28;20516;-72
2023/07/13 10:43:10;;;;;;;4.35;2.22;;;23.30;99.50;;;;;;5072087;28;20501;-72
2023/07/13 10:45:36;;;;;;;5.10;2.33;;;23.50;99.40;;;;;;5071978;28;20056;-73
2023/07/13 10:48:04;;;;;;;6.63;2.15;;;23.60;99.00;;;;;;5071646;28;20497;-71
2023/07/13 10:50:32;;;;;;;4.53;2.10;;;23.70;98.80;;;;;;5071857;28;20044;-72
2023/07/13 10:53:21;;;;;;;5.97;2.17;;;23.40;96.10;;;;;;5071783;28;20040;-71
2023/07/13 10:55:52;;;;;;;7.57;2.70;;;23.20;94.50;;;;;;5071572;28;20037;-72
2023/07/13 10:58:22;;;;;;;8.02;2.50;;;23.10;95.40;;;;;;5071521;28;20037;-72
2023/07/13 11:01:03;;;;;;;7.30;1.95;;;23.10;96.00;;;;;;5071488;28;20044;-72
2023/07/13 11:03:30;;;;;;;7.20;1.63;;;23.10;93.90;;;;;;5071747;28;20123;-72
2023/07/13 11:06:10;;;;;;;3.50;1.20;;;23.10;94.50;;;;;;5071326;28;20048;-72
2023/07/13 11:08:46;;;;;;;5.47;1.40;;;23.00;91.90;;;;;;5071750;28;20101;-72
2023/07/13 11:11:38;;;;;;;3.75;1.27;;;22.90;91.10;;;;;;5071453;28;20083;-72
2023/07/13 11:14:38;;;;;;;6.47;1.58;;;22.80;90.40;;;;;;5069824;28;20045;-72
2023/07/13 11:17:35;;;;;;;8.38;1.50;;;22.40;90.90;;;;;;5072314;28;20111;-71
2023/07/13 11:20:12;;;;;;;5.53;1.30;;;22.20;91.00;;;;;;5071555;28;20041;-74
2023/07/13 11:22:47;;;;;;;7.95;1.63;;;22.10;90.90;;;;;;5071326;28;20497;-72
2023/07/13 11:25:34;;;;;;;8.00;1.98;;;22.10;91.30;;;;;;5071295;28;20518;-73
2023/07/13 11:28:11;;;;;;;6.63;1.52;;;22.00;90.70;;;;;;5054735;28;20044;-73
2023/07/13 11:30:45;;;;;;;4.68;1.27;;;21.90;91.00;;;;;;5071354;28;20037;-73
2023/07/13 11:33:20;;;;;;;4.68;1.55;;;21.80;90.70;;;;;;5071319;28;20497;-74
2023/07/13 11:36:02;;;;;;;6.15;1.55;;;21.90;91.00;;;;;;5074896;28;20041;-73
2023/07/13 11:38:43;;;;;;;5.35;1.23;;;22.10;90.40;;;;;;5074948;28;20052;-73
2023/07/13 11:41:21;;;;;;;5.05;1.30;;;22.00;87.60;;;;;;5074883;28;20127;-73
2023/07/13 11:43:55;;;;;;;5.55;1.42;;;22.00;84.30;;;;;;5075218;28;20106;-74
2023/07/13 11:46:23;;;;;;;5.32;1.50;;;21.80;85.60;;;;;;5074901;28;20037;-73
2023/07/13 11:48:50;;;;;;;6.90;1.58;;;21.70;85.50;;;;;;5057819;28;20090;-71
2023/07/13 11:51:27;;;;;;;6.38;1.50;;;21.60;86.80;;;;;;5074780;28;20079;-71
2023/07/13 11:53:56;;;;;;;14.85;2.00;;;21.60;86.30;;;;;;5074491;28;20079;-72
2023/07/13 11:56:24;;;;;;;6.20;1.50;;;21.60;87.90;;;;;;5074735;28;20393;-72
2023/07/13 11:58:52;;;;;;;12.90;1.80;;;21.50;90.20;;;;;;5074343;28;20044;-71
2023/07/13 12:01:25;;;;;;;5.95;1.77;;;21.50;86.20;;;;;;5074521;28;20040;-72
2023/07/13 12:03:53;;;;;;;5.97;1.40;;;21.50;84.50;;;;;;5074671;28;20044;-72
2023/07/13 12:06:29;;;;;;;4.97;1.50;;;21.40;84.30;;;;;;5057434;28;20094;-72
2023/07/13 12:09:00;;;;;;;5.10;1.10;;;21.40;84.00;;;;;;5074231;28;20090;-72
2023/07/13 12:11:26;;;;;;;7.55;1.35;;;21.30;83.90;;;;;;5074167;28;20051;-72
2023/07/13 12:13:52;;;;;;;5.75;1.20;;;21.40;83.50;;;;;;5074145;28;20079;-71
2023/07/13 12:16:32;;;;;;;6.72;1.50;;;21.40;81.70;;;;;;5074119;28;20084;-72
2023/07/13 12:19:00;;;;;;;3.55;0.98;;;21.60;81.60;;;;;;5074055;28;20048;-71
2023/07/13 12:21:34;;;;;;;4.93;1.25;;;21.60;81.10;;;;;;5075526;28;20044;-73
2023/07/13 12:24:03;;;;;;;5.90;1.52;;;21.60;80.90;;;;;;5073914;28;20048;-73
2023/07/13 12:26:30;;;;;;;4.78;1.20;;;21.50;79.10;;;;;;5073861;28;20093;-73
2023/07/13 12:28:58;;;;;;;6.82;1.63;;;21.60;79.10;;;;;;5073775;28;20036;-73
2023/07/13 12:31:45;;;;;;;7.55;1.20;;;21.90;79.30;;;;;;5073805;28;20043;-73
2023/07/13 12:34:19;;;;;;;5.43;1.30;;;22.40;80.90;;;;;;5056959;28;20052;-74
2023/07/13 12:36:54;;;;;;;4.45;1.00;;;22.90;77.80;;;;;;5073804;28;20028;-74
2023/07/13 12:39:24;;;;;;;4.20;1.10;;;23.40;75.10;;;;;;5073673;28;20048;-73
2023/07/13 12:41:51;;;;;;;5.82;1.30;;;23.80;74.80;;;;;;5073628;28;20036;-73
2023/07/13 12:44:30;;;;;;;4.82;1.30;;;24.30;73.10;;;;;;5073643;28;20047;-75
2023/07/13 12:47:04;;;;;;;7.45;1.20;;;24.60;70.40;;;;;;5073064;28;20044;-74
2023/07/13 12:49:34;;;;;;;4.10;1.10;;;24.80;69.80;;;;;;5073537;28;20037;-74